createdAt,value
2022-10-30T00:01:01.292Z,4.53
2022-10-30T00:03:29.212Z,3.83
2022-10-30T00:05:57.143Z,3.97
2022-10-30T00:08:26.656Z,3.73
2022-10-30T00:10:55.981Z,3.87
2022-10-30T00:13:23.886Z,3.53
2022-10-30T00:15:53.676Z,4.00
2022-10-30T00:18:22.105Z,3.23
2022-10-30T00:20:50.412Z,4.17
2022-10-30T00:23:18.505Z,4.57
2022-10-30T00:25:46.411Z,3.77
2022-10-30T00:28:15.798Z,3.33
2022-10-30T00:30:43.688Z,3.20
2022-10-30T00:33:11.553Z,4.47
2022-10-30T00:35:39.678Z,4.60
2022-10-30T00:38:07.588Z,3.53
2022-10-30T00:40:35.470Z,3.57
2022-10-30T00:43:03.441Z,3.83
2022-10-30T00:45:32.774Z,3.87
2022-10-30T00:48:02.959Z,3.70
2022-10-30T00:50:32.755Z,3.43
2022-10-30T00:53:03.454Z,4.53
2022-10-30T00:55:34.623Z,3.37
2022-10-30T00:58:03.411Z,4.10
2022-10-30T01:00:33.040Z,2.90
2022-10-30T01:03:01.347Z,4.10
2022-10-30T01:05:30.290Z,3.67
2022-10-30T01:07:58.463Z,4.20
2022-10-30T01:10:26.950Z,4.83
2022-10-30T01:12:55.352Z,4.67
2022-10-30T01:15:28.353Z,3.63
2022-10-30T01:18:15.312Z,4.23
2022-10-30T01:21:02.923Z,4.53
2022-10-30T01:23:38.880Z,4.27
2022-10-30T01:26:15.027Z,5.23
2022-10-30T01:28:55.396Z,4.30
2022-10-30T01:31:34.985Z,4.37
2022-10-30T01:34:14.935Z,3.50
2022-10-30T01:36:48.140Z,4.57
2022-10-30T01:39:19.294Z,4.10
2022-10-30T01:41:47.233Z,4.60
2022-10-30T01:44:17.616Z,4.67
2022-10-30T01:46:53.455Z,5.67
2022-10-30T01:49:39.464Z,5.43
2022-10-30T01:52:14.693Z,5.40
2022-10-30T01:54:48.381Z,6.30
2022-10-30T01:57:21.644Z,5.77
2022-10-30T01:59:52.788Z,6.10
2022-10-30T02:02:21.211Z,6.00
2022-10-30T02:04:50.865Z,5.80
2022-10-30T02:07:18.871Z,4.97
2022-10-30T02:09:46.885Z,5.27
2022-10-30T02:12:14.820Z,6.03
2022-10-30T02:14:44.678Z,4.77
2022-10-30T02:17:13.211Z,5.57
2022-10-30T02:19:41.082Z,5.70
2022-10-30T02:22:10.501Z,5.47
2022-10-30T02:24:38.440Z,6.17
2022-10-30T02:27:06.352Z,6.03
2022-10-30T02:29:34.250Z,5.00
2022-10-30T02:32:02.148Z,5.67
2022-10-30T02:34:30.157Z,5.57
2022-10-30T02:36:58.025Z,4.70
2022-10-30T02:39:27.277Z,4.93
2022-10-30T02:41:55.194Z,5.03
2022-10-30T02:44:23.056Z,5.40
2022-10-30T02:46:50.975Z,4.53
2022-10-30T02:49:18.880Z,4.83
2022-10-30T02:51:46.782Z,4.33
2022-10-30T02:54:14.728Z,4.43
2022-10-30T02:56:44.001Z,4.43
2022-10-30T02:59:12.091Z,4.80
2022-10-30T03:01:40.173Z,4.23
2022-10-30T03:04:08.149Z,4.63
2022-10-30T03:06:36.213Z,4.53
2022-10-30T03:09:04.158Z,3.47
2022-10-30T03:11:32.042Z,5.30
2022-10-30T03:14:01.323Z,4.07
2022-10-30T03:16:30.784Z,4.20
2022-10-30T03:18:59.480Z,4.30
2022-10-30T03:21:29.107Z,4.60
2022-10-30T03:23:57.571Z,4.20
2022-10-30T03:26:25.518Z,4.40
2022-10-30T03:28:53.596Z,3.90
2022-10-30T03:31:22.896Z,3.57
2022-10-30T03:33:50.970Z,3.27
2022-10-30T03:36:19.480Z,3.90
2022-10-30T03:38:47.407Z,4.27
2022-10-30T03:41:15.302Z,4.03
2022-10-30T03:43:43.164Z,4.63
2022-10-30T03:46:11.571Z,3.23
2022-10-30T03:48:40.843Z,3.63
2022-10-30T03:51:08.792Z,3.90
2022-10-30T03:53:36.740Z,3.77
2022-10-30T03:56:05.848Z,3.70
2022-10-30T03:58:33.765Z,3.63
2022-10-30T04:01:02.684Z,3.50
2022-10-30T04:03:30.901Z,3.80
2022-10-30T04:06:00.316Z,3.37
2022-10-30T04:08:28.291Z,3.97
2022-10-30T04:10:56.231Z,3.87
2022-10-30T04:13:24.367Z,3.43
2022-10-30T04:15:55.952Z,3.77
2022-10-30T04:18:25.320Z,5.13
2022-10-30T04:20:53.277Z,5.00
2022-10-30T04:23:23.168Z,4.93
2022-10-30T04:25:51.069Z,5.13
2022-10-30T04:28:19.466Z,4.60
2022-10-30T04:30:47.481Z,5.23
2022-10-30T04:33:15.526Z,4.87
2022-10-30T04:35:43.962Z,4.77
2022-10-30T04:38:13.401Z,5.17
2022-10-30T04:40:44.211Z,4.07
2022-10-30T04:43:13.062Z,4.37
2022-10-30T04:45:41.706Z,3.60
2022-10-30T04:48:12.456Z,3.83
2022-10-30T04:50:40.593Z,3.83
2022-10-30T04:53:11.408Z,3.77
2022-10-30T04:55:39.327Z,4.07
2022-10-30T04:58:09.421Z,4.00
2022-10-30T05:00:37.430Z,5.00
2022-10-30T05:03:05.426Z,5.13
2022-10-30T05:05:33.817Z,4.73
2022-10-30T05:08:02.231Z,4.73
2022-10-30T05:10:30.392Z,4.30
2022-10-30T05:13:00.168Z,4.70
2022-10-30T05:15:30.213Z,9.10
2022-10-30T05:17:58.538Z,9.03
2022-10-30T05:20:26.617Z,7.57
2022-10-30T05:22:58.622Z,5.87
2022-10-30T05:25:27.560Z,5.63
2022-10-30T05:27:59.760Z,5.30
2022-10-30T05:30:32.254Z,4.40
2022-10-30T05:33:00.825Z,4.67
2022-10-30T05:35:29.075Z,4.40
2022-10-30T05:37:57.209Z,4.10
2022-10-30T05:40:25.101Z,3.70
2022-10-30T05:42:53.052Z,4.33
2022-10-30T05:45:21.543Z,4.50
2022-10-30T05:47:57.499Z,4.33
2022-10-30T05:50:26.214Z,4.43
2022-10-30T05:52:56.799Z,4.30
2022-10-30T05:55:25.139Z,4.63
2022-10-30T05:57:57.279Z,4.97
2022-10-30T06:00:25.520Z,4.83
2022-10-30T06:02:53.538Z,5.30
2022-10-30T06:05:22.911Z,5.23
2022-10-30T06:07:50.782Z,5.07
2022-10-30T06:10:18.710Z,5.10
2022-10-30T06:12:53.713Z,8.53
2022-10-30T06:15:21.931Z,7.20
2022-10-30T06:17:49.855Z,4.87
2022-10-30T06:20:18.861Z,4.80
2022-10-30T06:22:56.259Z,4.67
2022-10-30T06:25:24.385Z,7.93
2022-10-30T06:27:52.717Z,8.87
2022-10-30T06:30:21.440Z,7.47
2022-10-30T06:32:49.454Z,6.37
2022-10-30T06:35:17.744Z,6.77
2022-10-30T06:37:49.082Z,6.90
2022-10-30T06:40:18.502Z,7.20
2022-10-30T06:42:46.588Z,7.67
2022-10-30T06:45:15.448Z,7.13
2022-10-30T06:47:43.682Z,6.60
2022-10-30T06:50:13.790Z,7.00
2022-10-30T06:52:41.729Z,5.37
2022-10-30T06:55:10.567Z,6.63
2022-10-30T06:57:40.042Z,5.60
2022-10-30T07:00:09.825Z,6.40
2022-10-30T07:02:37.697Z,6.10
2022-10-30T07:05:06.241Z,5.73
2022-10-30T07:07:34.503Z,5.10
2022-10-30T07:10:02.417Z,5.40
2022-10-30T07:12:30.336Z,5.87
2022-10-30T07:14:59.587Z,5.50
2022-10-30T07:17:27.512Z,5.53
2022-10-30T07:19:55.594Z,5.63
2022-10-30T07:22:23.483Z,5.67
2022-10-30T07:24:51.429Z,5.93
2022-10-30T07:27:19.322Z,6.20
2022-10-30T07:29:47.209Z,6.10
2022-10-30T07:32:16.487Z,5.33
2022-10-30T07:34:44.360Z,5.67
2022-10-30T07:37:12.280Z,5.93
2022-10-30T07:39:40.187Z,5.70
2022-10-30T07:42:08.076Z,4.63
2022-10-30T07:44:36.108Z,5.10
2022-10-30T07:47:04.031Z,5.50
2022-10-30T07:49:33.577Z,5.77
2022-10-30T07:52:01.463Z,6.37
2022-10-30T07:54:29.357Z,6.13
2022-10-30T07:56:58.420Z,5.83
2022-10-30T07:59:26.633Z,6.53
2022-10-30T08:01:54.631Z,6.40
2022-10-30T08:04:22.702Z,4.87
2022-10-30T08:06:51.945Z,6.07
2022-10-30T08:09:19.917Z,6.10
2022-10-30T08:11:47.784Z,6.23
2022-10-30T08:14:15.716Z,6.03
2022-10-30T08:16:43.585Z,5.73
2022-10-30T08:19:11.454Z,6.90
2022-10-30T08:21:39.455Z,6.33
2022-10-30T08:24:09.320Z,6.70
2022-10-30T08:26:37.243Z,6.47
2022-10-30T08:29:05.149Z,6.37
2022-10-30T08:31:33.020Z,6.20
2022-10-30T08:34:00.954Z,6.30
2022-10-30T08:36:28.841Z,6.30
2022-10-30T08:38:56.758Z,6.47
2022-10-30T08:41:26.072Z,7.77
2022-10-30T08:43:53.947Z,6.37
2022-10-30T08:46:21.893Z,5.40
2022-10-30T08:48:49.795Z,6.40
2022-10-30T08:51:17.656Z,6.57
2022-10-30T08:53:45.647Z,6.20
2022-10-30T08:56:13.585Z,7.20
2022-10-30T08:58:42.949Z,6.57
2022-10-30T09:01:10.940Z,7.10
2022-10-30T09:03:39.851Z,6.80
2022-10-30T09:06:08.312Z,6.50
2022-10-30T09:08:36.191Z,6.80
2022-10-30T09:11:04.327Z,6.27
2022-10-30T09:13:32.323Z,6.73
2022-10-30T09:16:03.158Z,6.87
2022-10-30T09:18:31.429Z,6.60
2022-10-30T09:21:03.030Z,6.90
2022-10-30T09:23:33.187Z,7.27
2022-10-30T09:26:01.060Z,7.10
2022-10-30T09:28:28.943Z,6.60
2022-10-30T09:30:57.200Z,7.07
2022-10-30T09:33:26.922Z,7.50
2022-10-30T09:35:54.999Z,7.37
2022-10-30T09:38:22.914Z,7.40
2022-10-30T09:41:02.617Z,6.33
2022-10-30T09:43:37.039Z,6.37
2022-10-30T09:46:22.676Z,5.37
2022-10-30T09:49:07.432Z,7.33
2022-10-30T09:51:49.522Z,7.03
2022-10-30T09:54:24.787Z,6.93
2022-10-30T09:57:01.055Z,8.10
2022-10-30T09:59:40.659Z,7.87
2022-10-30T10:02:22.913Z,6.50
2022-10-30T10:04:55.274Z,7.90
2022-10-30T10:07:25.309Z,6.83
2022-10-30T10:10:02.669Z,6.53
2022-10-30T10:12:35.054Z,6.47
2022-10-30T10:15:07.049Z,6.57
2022-10-30T10:17:36.292Z,6.33
2022-10-30T10:20:06.784Z,6.57
2022-10-30T10:22:38.077Z,6.33
2022-10-30T10:25:10.360Z,6.20
2022-10-30T10:27:54.284Z,6.33
2022-10-30T10:30:23.067Z,6.40
2022-10-30T10:33:06.033Z,7.03
2022-10-30T10:36:03.676Z,7.53
2022-10-30T10:38:40.859Z,6.20
2022-10-30T10:41:14.979Z,7.20
2022-10-30T10:43:53.416Z,6.80
2022-10-30T10:46:32.352Z,6.97
2022-10-30T10:49:12.164Z,7.17
2022-10-30T10:51:43.825Z,7.13
2022-10-30T10:54:13.753Z,7.10
2022-10-30T10:56:45.084Z,7.13
2022-10-30T10:59:17.752Z,7.07
2022-10-30T11:01:49.997Z,7.80
2022-10-30T11:04:21.650Z,6.23
2022-10-30T11:06:53.412Z,6.30
2022-10-30T11:09:22.929Z,5.83
2022-10-30T11:11:52.686Z,6.50
2022-10-30T11:14:22.000Z,6.23
2022-10-30T11:17:04.722Z,5.80
2022-10-30T11:19:33.113Z,6.80
2022-10-30T11:22:02.460Z,6.10
2022-10-30T11:24:32.070Z,5.87
2022-10-30T11:27:17.630Z,5.97
2022-10-30T11:29:50.961Z,6.30
2022-10-30T11:32:22.494Z,6.00
2022-10-30T11:35:02.313Z,6.27
2022-10-30T11:37:33.207Z,6.37
2022-10-30T11:40:07.297Z,5.10
2022-10-30T11:42:35.880Z,5.80
2022-10-30T11:45:04.759Z,5.03
2022-10-30T11:47:36.881Z,5.67
2022-10-30T11:50:06.444Z,5.73
2022-10-30T11:52:39.720Z,5.07
2022-10-30T11:55:12.192Z,5.70
2022-10-30T11:57:43.675Z,5.80
2022-10-30T12:00:17.080Z,5.47
2022-10-30T12:02:48.238Z,5.33
2022-10-30T12:05:32.454Z,5.20
2022-10-30T12:08:18.649Z,5.10
2022-10-30T12:10:48.735Z,6.10
2022-10-30T12:13:18.462Z,4.57
2022-10-30T12:15:48.765Z,4.97
2022-10-30T12:18:21.269Z,5.33
2022-10-30T12:20:50.760Z,5.70
2022-10-30T12:23:24.769Z,5.70
2022-10-30T12:25:54.636Z,5.60
2022-10-30T12:28:24.436Z,6.10
2022-10-30T12:30:54.488Z,6.87
2022-10-30T12:33:25.613Z,5.93
2022-10-30T12:35:57.546Z,5.67
2022-10-30T12:38:30.646Z,6.00
2022-10-30T12:41:04.914Z,5.70
2022-10-30T12:43:34.668Z,5.73
2022-10-30T12:46:16.464Z,6.30
2022-10-30T12:48:49.449Z,5.40
2022-10-30T12:51:22.966Z,5.37
2022-10-30T12:53:59.188Z,4.93
2022-10-30T12:56:30.508Z,5.90
2022-10-30T12:59:04.382Z,6.83
2022-10-30T13:01:36.864Z,5.07
2022-10-30T13:04:09.613Z,5.47
2022-10-30T13:06:42.585Z,5.20
2022-10-30T13:09:18.365Z,4.90
2022-10-30T13:11:51.658Z,5.30
2022-10-30T13:14:23.203Z,5.00
2022-10-30T13:16:52.961Z,4.03
2022-10-30T13:19:20.911Z,4.87
2022-10-30T13:21:54.210Z,4.73
2022-10-30T13:24:29.528Z,5.50
2022-10-30T13:27:00.299Z,4.73
2022-10-30T13:29:37.580Z,5.70
2022-10-30T13:32:21.256Z,5.67
2022-10-30T13:34:53.741Z,5.07
2022-10-30T13:37:25.448Z,5.33
2022-10-30T13:40:03.905Z,4.90
2022-10-30T13:42:41.145Z,5.47
2022-10-30T13:45:23.188Z,4.87
2022-10-30T13:47:59.468Z,5.20
2022-10-30T13:50:39.331Z,5.13
2022-10-30T13:53:19.648Z,4.80
2022-10-30T13:55:50.385Z,4.70
2022-10-30T13:58:21.418Z,4.53
2022-10-30T14:01:00.995Z,5.03
2022-10-30T14:03:45.248Z,4.00
2022-10-30T14:06:22.541Z,4.93
2022-10-30T14:08:54.252Z,4.23
2022-10-30T14:11:23.589Z,4.70
2022-10-30T14:13:58.481Z,4.60
2022-10-30T14:16:38.818Z,4.80
2022-10-30T14:19:07.583Z,4.37
2022-10-30T14:21:47.472Z,4.50
2022-10-30T14:24:17.539Z,4.30
2022-10-30T14:26:52.795Z,3.93
2022-10-30T14:29:42.764Z,3.97
2022-10-30T14:32:41.544Z,4.37
2022-10-30T14:35:45.900Z,4.50
2022-10-30T14:38:27.945Z,4.10
2022-10-30T14:41:19.875Z,4.50
2022-10-30T14:43:53.573Z,4.20
2022-10-30T14:46:26.180Z,4.33
2022-10-30T14:49:00.632Z,4.53
2022-10-30T14:51:34.189Z,4.53
2022-10-30T14:54:04.544Z,4.90
2022-10-30T14:56:37.576Z,4.77
2022-10-30T14:59:25.621Z,3.37
2022-10-30T15:02:15.097Z,3.60
2022-10-30T15:04:55.026Z,3.30
2022-10-30T15:07:25.826Z,3.27
2022-10-30T15:10:03.308Z,4.10
2022-10-30T15:12:58.234Z,4.23
2022-10-30T15:15:31.000Z,4.60
2022-10-30T15:18:00.734Z,3.60
2022-10-30T15:20:31.756Z,2.83
2022-10-30T15:23:02.866Z,3.30
2022-10-30T15:25:37.292Z,3.80
2022-10-30T15:28:05.547Z,4.73
2022-10-30T15:30:34.928Z,3.20
2022-10-30T15:33:03.434Z,4.53
2022-10-30T15:35:31.575Z,3.03
2022-10-30T15:38:01.075Z,4.60
2022-10-30T15:40:29.877Z,4.67
2022-10-30T15:42:59.084Z,4.67
2022-10-30T15:45:30.928Z,5.10
2022-10-30T15:48:08.072Z,5.40
2022-10-30T15:50:36.756Z,8.57
2022-10-30T15:53:04.695Z,4.10
2022-10-30T15:55:33.833Z,7.73
2022-10-30T15:58:05.176Z,4.53
2022-10-30T16:00:34.872Z,3.90
2022-10-30T16:03:06.347Z,3.60
2022-10-30T16:05:35.792Z,3.90
2022-10-30T16:08:05.467Z,3.43
2022-10-30T16:10:35.808Z,5.60
2022-10-30T16:13:04.328Z,5.40
2022-10-30T16:15:34.318Z,5.40
2022-10-30T16:18:16.916Z,6.03
2022-10-30T16:20:47.241Z,4.13
2022-10-30T16:23:15.557Z,7.37
2022-10-30T16:25:47.269Z,8.20
2022-10-30T16:28:26.900Z,5.30
2022-10-30T16:30:55.142Z,6.33
2022-10-30T16:33:27.663Z,4.67
2022-10-30T16:35:56.246Z,4.50
2022-10-30T16:38:25.569Z,4.70
2022-10-30T16:40:53.806Z,4.83
2022-10-30T16:43:28.533Z,4.67
2022-10-30T16:45:57.430Z,5.93
2022-10-30T16:48:28.869Z,6.77
2022-10-30T16:51:01.060Z,5.77
2022-10-30T16:53:29.607Z,4.50
2022-10-30T16:55:59.227Z,6.23
2022-10-30T16:58:29.217Z,10.27
2022-10-30T17:00:58.677Z,9.07
2022-10-30T17:03:29.706Z,9.83
2022-10-30T17:05:59.747Z,9.03
2022-10-30T17:08:40.881Z,10.30
2022-10-30T17:11:17.744Z,6.87
2022-10-30T17:13:59.324Z,6.47
2022-10-30T17:16:28.948Z,5.63
2022-10-30T17:19:00.551Z,5.90
2022-10-30T17:21:30.728Z,5.43
2022-10-30T17:24:00.708Z,5.90
2022-10-30T17:26:29.992Z,6.53
2022-10-30T17:28:57.907Z,9.33
2022-10-30T17:31:44.021Z,11.87
2022-10-30T17:34:18.602Z,7.67
2022-10-30T17:36:46.981Z,11.60
2022-10-30T17:39:14.994Z,10.93
2022-10-30T17:41:44.003Z,8.37
2022-10-30T17:44:18.853Z,6.80
2022-10-30T17:46:46.783Z,11.37
2022-10-30T17:49:25.181Z,10.17
2022-10-30T17:51:53.244Z,9.10
2022-10-30T17:54:21.178Z,8.53
2022-10-30T17:56:49.080Z,7.63
2022-10-30T17:59:17.060Z,9.77
2022-10-30T18:01:45.058Z,8.77
2022-10-30T18:04:19.724Z,7.77
2022-10-30T18:06:50.573Z,8.30
2022-10-30T18:09:18.620Z,6.97
2022-10-30T18:11:46.505Z,6.63
2022-10-30T18:14:14.421Z,5.93
2022-10-30T18:16:42.302Z,5.90
2022-10-30T18:19:11.848Z,7.03
2022-10-30T18:21:40.014Z,6.70
2022-10-30T18:24:13.972Z,7.93
2022-10-30T18:26:42.541Z,6.40
2022-10-30T18:29:10.844Z,6.17
2022-10-30T18:31:39.465Z,6.33
2022-10-30T18:34:13.080Z,6.83
2022-10-30T18:36:40.967Z,5.70
2022-10-30T18:39:10.929Z,5.73
2022-10-30T18:41:42.916Z,5.63
2022-10-30T18:44:15.153Z,9.33
2022-10-30T18:46:43.171Z,6.87
2022-10-30T18:49:11.077Z,6.50
2022-10-30T18:51:39.036Z,18.13
2022-10-30T18:54:12.109Z,6.70
2022-10-30T18:56:41.383Z,6.03
2022-10-30T18:59:09.304Z,6.20
2022-10-30T19:01:37.538Z,6.20
2022-10-30T19:04:09.689Z,5.60
2022-10-30T19:06:38.941Z,5.53
2022-10-30T19:09:07.180Z,5.40
2022-10-30T19:11:36.454Z,6.93
2022-10-30T19:14:11.705Z,6.40
2022-10-30T19:16:39.591Z,5.20
2022-10-30T19:19:07.727Z,5.10
2022-10-30T19:21:35.637Z,6.10
2022-10-30T19:24:03.948Z,8.23
2022-10-30T19:26:31.912Z,7.43
2022-10-30T19:28:59.795Z,6.33
2022-10-30T19:31:29.115Z,6.97
2022-10-30T19:33:57.473Z,6.67
2022-10-30T19:36:30.369Z,7.00
2022-10-30T19:38:58.319Z,7.47
2022-10-30T19:41:26.412Z,6.90
2022-10-30T19:43:54.696Z,6.27
2022-10-30T19:46:22.765Z,7.73
2022-10-30T19:49:00.150Z,5.97
2022-10-30T19:51:28.776Z,6.67
2022-10-30T19:53:56.809Z,6.23
2022-10-30T19:56:24.776Z,6.10
2022-10-30T19:58:52.745Z,6.70
2022-10-30T20:01:20.772Z,8.40
2022-10-30T20:03:48.681Z,7.87
2022-10-30T20:06:18.981Z,7.47
2022-10-30T20:08:46.892Z,5.90
2022-10-30T20:11:14.768Z,6.03
2022-10-30T20:13:42.673Z,6.07
2022-10-30T20:16:12.285Z,5.53
2022-10-30T20:18:40.260Z,5.50
2022-10-30T20:21:10.784Z,5.10
2022-10-30T20:23:40.537Z,5.77
2022-10-30T20:26:16.945Z,10.90
2022-10-30T20:28:46.009Z,6.03
2022-10-30T20:31:14.131Z,4.70
2022-10-30T20:33:42.144Z,5.70
2022-10-30T20:36:11.905Z,5.97
2022-10-30T20:38:41.308Z,5.87
2022-10-30T20:41:20.800Z,5.73
2022-10-30T20:43:50.065Z,5.93
2022-10-30T20:46:18.147Z,4.97
2022-10-30T20:48:46.182Z,4.60
2022-10-30T20:51:14.490Z,5.03
2022-10-30T20:53:43.823Z,5.33
2022-10-30T20:56:11.949Z,4.83
2022-10-30T20:58:39.924Z,5.33
2022-10-30T21:01:07.994Z,6.07
2022-10-30T21:03:35.911Z,7.60
2022-10-30T21:06:03.814Z,6.33
2022-10-30T21:08:32.530Z,6.20
2022-10-30T21:11:02.268Z,7.30
2022-10-30T21:13:30.280Z,7.13
2022-10-30T21:16:01.982Z,6.97
2022-10-30T21:18:30.001Z,7.63
2022-10-30T21:21:01.276Z,7.63
2022-10-30T21:23:29.200Z,7.23
2022-10-30T21:26:03.372Z,5.40
2022-10-30T21:28:31.476Z,6.93
2022-10-30T21:31:02.230Z,6.00
2022-10-30T21:33:31.677Z,6.10
2022-10-30T21:36:10.669Z,5.97
2022-10-30T21:38:41.735Z,4.50
2022-10-30T21:41:11.237Z,5.77
2022-10-30T21:43:39.132Z,6.23
2022-10-30T21:46:07.838Z,5.50
2022-10-30T21:48:35.859Z,4.90
2022-10-30T21:51:08.667Z,5.30
2022-10-30T21:53:37.205Z,6.17
2022-10-30T21:56:06.667Z,6.37
2022-10-30T21:58:36.021Z,6.70
2022-10-30T22:01:04.245Z,5.70
2022-10-30T22:03:32.231Z,6.23
2022-10-30T22:06:00.393Z,5.10
2022-10-30T22:08:28.255Z,6.17
2022-10-30T22:10:56.129Z,5.57
2022-10-30T22:13:24.077Z,5.93
2022-10-30T22:15:56.822Z,6.53
2022-10-30T22:18:24.743Z,6.17
2022-10-30T22:20:52.653Z,5.03
2022-10-30T22:23:20.565Z,3.93
2022-10-30T22:25:55.472Z,4.50
2022-10-30T22:28:23.651Z,6.13
2022-10-30T22:30:52.105Z,5.50
2022-10-30T22:33:21.983Z,5.93
2022-10-30T22:35:49.934Z,4.27
2022-10-30T22:38:17.825Z,4.37
2022-10-30T22:40:45.720Z,5.77
2022-10-30T22:43:13.681Z,5.93
2022-10-30T22:45:41.608Z,5.20
2022-10-30T22:48:09.475Z,5.27
2022-10-30T22:50:39.250Z,5.10
2022-10-30T22:53:07.177Z,5.07
2022-10-30T22:55:35.063Z,6.07
2022-10-30T22:58:03.393Z,5.73
2022-10-30T23:00:31.533Z,5.53
2022-10-30T23:03:00.383Z,4.53
2022-10-30T23:05:28.662Z,4.17
2022-10-30T23:07:57.924Z,4.90
2022-10-30T23:10:25.823Z,5.90
2022-10-30T23:12:53.723Z,5.70
2022-10-30T23:15:21.589Z,5.43
2022-10-30T23:17:50.164Z,5.03
2022-10-30T23:20:18.313Z,4.73
2022-10-30T23:22:46.185Z,4.57
2022-10-30T23:25:15.465Z,5.27
2022-10-30T23:27:43.335Z,4.77
2022-10-30T23:30:12.340Z,5.80
2022-10-30T23:32:40.251Z,5.80
2022-10-30T23:35:08.968Z,6.77
2022-10-30T23:37:36.856Z,6.63
2022-10-30T23:40:04.988Z,5.80
2022-10-30T23:42:34.271Z,7.30
2022-10-30T23:45:02.199Z,7.30
2022-10-30T23:47:30.071Z,6.27
2022-10-30T23:49:57.949Z,6.50
2022-10-30T23:52:25.917Z,8.20
2022-10-30T23:54:53.803Z,5.97
2022-10-30T23:57:21.729Z,7.73
2022-10-30T23:59:51.048Z,9.20
